Time;durP1;ratioP1;P1;durP2;ratioP2;P2;SDS_P1;SDS_P2;PMS_P1;PMS_P2;Temp;Humidity;BMP_temperature;BMP_pressure;BME280_temperature;BME280_humidity;BME280_pressure;Samples;Min_cycle;Max_cycle;Signal;HPM_P1;HPM_P2
2022/06/22 00:01:58;;;;;;;3.88;2.55;;;22.20;86.40;;;;;;5028185;28;20034;-82
2022/06/22 00:04:37;;;;;;;6.72;3.20;;;22.10;86.30;;;;;;5044650;28;20076;-84
2022/06/22 00:07:23;;;;;;;4.88;2.88;;;22.00;86.50;;;;;;5029291;28;20804;-84
2022/06/22 00:09:59;;;;;;;6.55;2.70;;;22.00;86.10;;;;;;5033865;28;20033;-85
2022/06/22 00:12:31;;;;;;;6.10;2.60;;;22.00;86.40;;;;;;5035135;28;20029;-85
2022/06/22 00:15:00;;;;;;;5.57;2.72;;;22.00;86.20;;;;;;5024709;28;20093;-86
2022/06/22 00:17:30;;;;;;;5.10;2.83;;;22.00;86.00;;;;;;5035552;28;20044;-86
2022/06/22 00:20:21;;;;;;;7.65;3.13;;;22.00;86.00;;;;;;5030944;28;20498;-82
2022/06/22 00:23:13;;;;;;;5.10;2.97;;;22.00;85.70;;;;;;5038121;28;20037;-83
2022/06/22 00:25:40;;;;;;;6.30;3.00;;;22.00;85.40;;;;;;5027389;28;20077;-82
2022/06/22 00:28:33;;;;;;;5.07;2.20;;;22.00;85.10;;;;;;5034907;28;20052;-80
2022/06/22 00:31:21;;;;;;;5.45;2.83;;;22.00;85.20;;;;;;5034461;28;20038;-82
2022/06/22 00:34:11;;;;;;;6.68;2.70;;;22.00;85.10;;;;;;5027778;28;20030;-83
2022/06/22 00:36:40;;;;;;;6.05;2.58;;;22.00;85.10;;;;;;5028824;28;20093;-83
2022/06/22 00:39:21;;;;;;;3.65;2.45;;;22.00;85.20;;;;;;5037797;28;20085;-82
2022/06/22 00:41:58;;;;;;;5.28;2.35;;;22.00;85.30;;;;;;5033142;28;20032;-81
2022/06/22 00:44:32;;;;;;;4.28;2.63;;;21.90;85.20;;;;;;5038457;28;20103;-83
2022/06/22 00:47:15;;;;;;;3.90;2.53;;;22.00;85.60;;;;;;5032690;28;20049;-81
2022/06/22 00:49:45;;;;;;;5.18;2.25;;;22.00;85.50;;;;;;5036971;28;20076;-84
2022/06/22 00:52:18;;;;;;;4.67;2.50;;;22.00;85.50;;;;;;5032797;28;20095;-82
2022/06/22 00:54:45;;;;;;;5.07;2.70;;;22.00;85.20;;;;;;5033704;28;20383;-83
2022/06/22 00:57:22;;;;;;;5.85;3.00;;;21.90;85.50;;;;;;5030416;28;20064;-83
2022/06/22 01:00:22;;;;;;;7.03;3.70;;;21.80;85.90;;;;;;5025722;28;20033;-83
2022/06/22 01:02:55;;;;;;;5.75;2.70;;;21.80;86.00;;;;;;4994359;28;20033;-83
2022/06/22 01:05:31;;;;;;;6.13;3.00;;;21.80;86.20;;;;;;5030353;28;20060;-80
2022/06/22 01:08:15;;;;;;;5.70;2.90;;;21.80;86.50;;;;;;5026181;28;20033;-82
2022/06/22 01:11:04;;;;;;;6.45;2.72;;;21.70;86.10;;;;;;5046917;28;20102;-81
2022/06/22 01:13:43;;;;;;;5.05;2.42;;;21.70;86.00;;;;;;5034497;28;20037;-81
2022/06/22 01:16:22;;;;;;;5.35;3.00;;;21.60;86.00;;;;;;5030613;28;20589;-82
2022/06/22 01:19:08;;;;;;;7.43;2.70;;;21.60;86.50;;;;;;5023187;28;20034;-83
2022/06/22 01:21:39;;;;;;;6.28;2.33;;;21.40;86.70;;;;;;5030792;28;20017;-84
2022/06/22 01:24:25;;;;;;;4.20;2.67;;;21.30;86.60;;;;;;5030609;28;20217;-83
2022/06/22 01:27:21;;;;;;;5.13;2.47;;;21.30;86.90;;;;;;5027485;28;20029;-81
2022/06/22 01:29:53;;;;;;;7.45;2.85;;;21.30;87.00;;;;;;5025608;28;20030;-84
2022/06/22 01:32:34;;;;;;;5.85;3.08;;;21.30;87.10;;;;;;5024089;28;20513;-82
2022/06/22 01:35:03;;;;;;;4.47;2.70;;;21.30;87.20;;;;;;5028547;28;20037;-81
2022/06/22 01:37:32;;;;;;;7.10;3.05;;;21.30;87.50;;;;;;5026767;28;20025;-83
2022/06/22 01:40:15;;;;;;;10.32;5.07;;;21.30;87.50;;;;;;5029585;28;20110;-82
2022/06/22 01:42:48;;;;;;;5.82;2.80;;;21.30;87.60;;;;;;5025305;28;20112;-84
2022/06/22 01:45:34;;;;;;;6.05;2.67;;;21.20;87.70;;;;;;5023026;28;20522;-81
2022/06/22 01:48:09;;;;;;;4.25;2.75;;;21.20;87.80;;;;;;5027417;28;20029;-86
2022/06/22 01:51:16;;;;;;;5.93;3.03;;;21.40;87.10;;;;;;5022996;28;20029;-83
2022/06/22 01:53:52;;;;;;;14.73;4.78;;;21.30;87.20;;;;;;5006489;28;20141;-85
2022/06/22 01:56:56;;;;;;;6.43;3.08;;;21.20;87.30;;;;;;5026996;28;20580;-82
2022/06/22 01:59:48;;;;;;;9.13;2.58;;;21.10;87.60;;;;;;5026533;28;20036;-84
2022/06/22 02:02:40;;;;;;;5.60;2.47;;;21.10;87.80;;;;;;5026675;28;20029;-84
2022/06/22 02:05:26;;;;;;;10.25;4.65;;;21.00;87.60;;;;;;5014299;28;20184;-83
2022/06/22 02:08:04;;;;;;;6.20;2.88;;;21.00;87.40;;;;;;5028461;28;20557;-83
2022/06/22 02:10:47;;;;;;;9.95;2.95;;;21.00;87.60;;;;;;5026218;28;20037;-83
2022/06/22 02:13:34;;;;;;;7.22;3.30;;;21.10;87.30;;;;;;5022161;28;20037;-82
2022/06/22 02:16:26;;;;;;;6.03;2.60;;;21.10;87.10;;;;;;5029451;28;20091;-84
2022/06/22 02:19:12;;;;;;;6.07;3.00;;;21.10;87.00;;;;;;5028191;28;20036;-82
2022/06/22 02:21:52;;;;;;;5.10;2.50;;;21.00;87.40;;;;;;5026966;28;20470;-82
2022/06/22 02:24:33;;;;;;;4.35;2.20;;;21.00;87.50;;;;;;5022911;28;20087;-84
2022/06/22 02:27:14;;;;;;;5.45;2.70;;;20.90;87.50;;;;;;5035177;28;20021;-81
2022/06/22 02:30:00;;;;;;;3.05;2.38;;;20.90;87.20;;;;;;5028590;28;20033;-82
2022/06/22 02:32:47;;;;;;;5.40;2.33;;;20.90;87.10;;;;;;5027568;28;20051;-83
2022/06/22 02:35:15;;;;;;;4.72;2.45;;;20.90;87.30;;;;;;5030158;28;20038;-82
2022/06/22 02:37:46;;;;;;;5.07;2.60;;;20.90;87.40;;;;;;5025739;28;20044;-85
2022/06/22 02:40:20;;;;;;;4.53;2.22;;;20.90;86.70;;;;;;5027913;28;20025;-81
2022/06/22 02:45:31;;;;;;;3.45;2.40;;;20.90;86.70;;;;;;5031688;28;20040;-83
2022/06/22 02:48:01;;;;;;;4.18;2.00;;;20.90;86.80;;;;;;5030620;28;20044;-82
2022/06/22 02:50:42;;;;;;;5.68;2.53;;;20.90;86.80;;;;;;5028826;28;20104;-83
2022/06/22 02:53:33;;;;;;;4.45;2.30;;;20.90;87.20;;;;;;5032076;28;20044;-84
2022/06/22 02:56:04;;;;;;;5.32;2.50;;;20.80;86.50;;;;;;5039413;28;20029;-83
2022/06/22 02:58:33;;;;;;;6.43;2.30;;;21.50;86.80;;;;;;5029572;28;20052;-81
2022/06/22 03:01:13;;;;;;;4.63;2.30;;;20.90;86.50;;;;;;5030845;28;20083;-82
2022/06/22 03:03:56;;;;;;;5.68;2.10;;;20.90;86.70;;;;;;5033092;28;20203;-83
2022/06/22 03:06:28;;;;;;;4.82;2.20;;;20.80;86.80;;;;;;5035825;28;20065;-82
2022/06/22 03:08:55;;;;;;;4.82;2.60;;;20.80;86.60;;;;;;5027983;28;20052;-81
2022/06/22 03:11:21;;;;;;;5.28;2.22;;;20.80;86.60;;;;;;5053625;28;20037;-81
2022/06/22 03:13:57;;;;;;;4.05;2.22;;;20.70;86.90;;;;;;5048397;28;20059;-78
2022/06/22 03:16:37;;;;;;;4.60;2.72;;;20.80;87.00;;;;;;5057013;28;20020;-79
2022/06/22 03:19:13;;;;;;;3.15;2.20;;;20.90;86.40;;;;;;5048957;28;20097;-78
2022/06/22 03:21:41;;;;;;;8.48;2.20;;;20.80;87.20;;;;;;5051305;28;20081;-78
2022/06/22 03:24:30;;;;;;;3.38;2.10;;;20.70;86.80;;;;;;5047437;28;20089;-80
2022/06/22 03:27:02;;;;;;;4.78;2.40;;;20.70;87.00;;;;;;5033140;28;20021;-81
2022/06/22 03:29:40;;;;;;;4.97;2.15;;;20.60;86.70;;;;;;5030786;28;20026;-80
2022/06/22 03:32:12;;;;;;;5.22;2.22;;;20.60;86.70;;;;;;5032310;28;20029;-81
2022/06/22 03:34:47;;;;;;;4.32;2.42;;;20.60;86.70;;;;;;5028689;28;20029;-83
2022/06/22 03:37:27;;;;;;;5.43;2.45;;;20.60;86.80;;;;;;5027139;28;20036;-81
2022/06/22 03:39:58;;;;;;;;;;;20.60;86.60;;;;;;5034476;28;20025;-81
2022/06/22 03:42:30;;;;;;;4.38;2.25;;;20.60;86.50;;;;;;5024307;28;19924;-82
2022/06/22 03:45:05;;;;;;;5.28;2.33;;;20.60;86.60;;;;;;5026162;28;20032;-83
2022/06/22 03:47:55;;;;;;;4.65;2.40;;;20.50;86.60;;;;;;5026273;28;20037;-82
2022/06/22 03:50:36;;;;;;;6.03;2.42;;;20.50;86.80;;;;;;5042040;28;20037;-81
2022/06/22 03:53:10;;;;;;;2.60;2.10;;;20.50;87.00;;;;;;5032344;28;20025;-82
2022/06/22 03:55:40;;;;;;;3.20;2.22;;;20.60;87.20;;;;;;5031363;28;20033;-80
2022/06/22 03:58:09;;;;;;;3.58;2.17;;;20.60;87.20;;;;;;5033739;28;20037;-81
2022/06/22 04:00:39;;;;;;;3.92;2.15;;;20.60;87.20;;;;;;5030548;28;20087;-82
2022/06/22 04:03:05;;;;;;;6.00;2.42;;;20.60;87.00;;;;;;5030737;28;20036;-83
2022/06/22 04:05:43;;;;;;;5.90;2.08;;;20.60;87.00;;;;;;5039577;28;20026;-81
2022/06/22 04:08:28;;;;;;;5.30;2.20;;;20.60;86.50;;;;;;5026760;28;20041;-82
2022/06/22 04:11:06;;;;;;;4.97;2.30;;;20.60;86.60;;;;;;5047685;23;20122;-88
2022/06/22 04:13:39;;;;;;;3.92;2.20;;;20.60;86.60;;;;;;5000334;28;20037;-87
2022/06/22 04:16:13;;;;;;;3.40;2.20;;;20.60;86.70;;;;;;4996080;28;20026;-89
2022/06/22 04:18:52;;;;;;;6.30;2.33;;;20.70;86.50;;;;;;4998103;28;20034;-88
2022/06/22 04:21:30;;;;;;;4.57;2.30;;;20.60;86.50;;;;;;5001678;28;20035;-89
2022/06/22 04:24:01;;;;;;;4.07;2.22;;;20.70;86.70;;;;;;5000262;28;20026;-88
2022/06/22 04:26:50;;;;;;;6.72;2.20;;;;;;;;;;4992912;28;20034;-87
2022/06/22 04:42:13;;;;;;;4.77;2.20;;;;;;;;;;5262350;22;25037061;-82
2022/06/22 04:44:43;;;;;;;3.45;2.08;;;;;;;;;;6265742;22;20003;-83
2022/06/22 04:47:44;;;;;;;;;;;20.90;85.90;;;;;;6263956;22;20007;-83
2022/06/22 04:50:12;;;;;;;6.00;2.20;;;;;;;;;;6165601;22;19924;-85
2022/06/22 04:52:42;;;;;;;2.97;1.77;;;;;;;;;;6261399;22;20349;-82
2022/06/22 04:55:11;;;;;;;4.00;2.05;;;;;;;;;;6263889;22;20007;-83
2022/06/22 04:57:39;;;;;;;6.47;2.17;;;;;;;;;;6287237;22;20016;-83
2022/06/22 05:00:11;;;;;;;3.58;2.30;;;;;;;;;;6273304;22;20197;-87
2022/06/22 05:02:41;;;;;;;5.05;2.30;;;;;;;;;;6307013;22;20084;-88
2022/06/22 05:06:05;;;;;;;4.95;1.95;;;21.10;84.70;;;;;;6278504;22;19996;-89
2022/06/22 05:08:55;;;;;;;3.15;1.90;;;21.10;85.00;;;;;;6123513;23;20029;-84
2022/06/22 05:11:25;;;;;;;4.13;1.90;;;21.00;84.80;;;;;;6153872;22;20007;-87
2022/06/22 05:13:53;;;;;;;;;;;21.10;85.10;;;;;;6269949;22;20534;-83
2022/06/22 05:16:23;;;;;;;2.85;2.10;;;21.00;85.20;;;;;;6262888;22;19903;-81
2022/06/22 05:18:53;;;;;;;3.40;2.08;;;21.00;85.20;;;;;;6260631;22;20326;-85
2022/06/22 05:21:39;;;;;;;2.92;2.10;;;21.00;85.60;;;;;;6255877;22;20068;-84
2022/06/22 05:24:10;;;;;;;5.47;2.30;;;;;;;;;;6257527;22;20007;-84
2022/06/22 05:26:37;;;;;;;4.30;2.50;;;;;;;;;;6258592;22;20011;-84
2022/06/22 05:29:10;;;;;;;5.57;2.10;;;20.80;85.80;;;;;;6286389;22;20004;-81
2022/06/22 05:31:46;;;;;;;5.78;2.50;;;20.70;86.40;;;;;;6256043;22;20004;-83
2022/06/22 05:34:19;;;;;;;6.55;2.30;;;20.70;85.90;;;;;;6259792;22;20019;-84
2022/06/22 05:36:48;;;;;;;3.10;2.10;;;;;;;;;;6287092;22;20007;-83
2022/06/22 05:39:15;;;;;;;6.47;2.20;;;;;;;;;;6287080;22;20007;-83
2022/06/22 05:41:44;;;;;;;5.15;2.60;;;;;;;;;;6251131;23;20091;-84
2022/06/22 05:44:17;;;;;;;4.03;2.30;;;20.90;85.70;;;;;;6247677;22;20109;-84
2022/06/22 05:46:52;;;;;;;3.05;1.98;;;20.90;85.30;;;;;;6248703;23;20334;-84
2022/06/22 05:49:20;;;;;;;4.47;2.33;;;;;;;;;;6252778;22;20004;-87
2022/06/22 05:52:04;;;;;;;6.78;2.30;;;21.10;84.60;;;;;;6252457;23;19996;-84
2022/06/22 05:54:40;;;;;;;4.55;2.30;;;;;;;;;;6226112;23;20076;-82
2022/06/22 05:57:09;;;;;;;4.97;2.20;;;;;;;;;;6250911;23;20084;-83
2022/06/22 05:59:49;;;;;;;4.38;2.15;;;21.40;84.10;;;;;;6251732;23;20287;-84
2022/06/22 06:02:41;;;;;;;3.83;2.00;;;22.00;82.70;;;;;;6251419;22;20004;-84
2022/06/22 06:05:21;;;;;;;4.43;2.20;;;22.30;80.90;;;;;;6251010;22;20027;-83
2022/06/22 06:08:04;;;;;;;7.60;2.55;;;;;;;;;;6251915;23;20001;-84
2022/06/22 06:10:54;;;;;;;4.65;2.00;;;;;;;;;;6249667;23;20006;-85
2022/06/22 06:13:24;;;;;;;6.53;2.40;;;;;;;;;;6230526;22;20338;-84
2022/06/22 06:15:57;;;;;;;5.88;2.40;;;;;;;;;;6248644;23;20095;-83
2022/06/22 06:18:31;;;;;;;4.65;2.20;;;22.00;82.40;;;;;;6253106;23;20008;-85
2022/06/22 06:21:05;;;;;;;5.18;2.28;;;;;;;;;;6250682;23;20431;-82
2022/06/22 06:23:52;;;;;;;3.60;2.10;;;22.00;82.50;;;;;;6250954;22;20031;-83
2022/06/22 06:29:50;;;;;;;3.10;2.03;;;21.80;82.60;;;;;;6241946;22;20014;-83
2022/06/22 06:32:25;;;;;;;6.90;2.20;;;;;;;;;;6250941;22;20020;-85
2022/06/22 06:35:48;;;;;;;5.43;2.28;;;21.60;83.00;;;;;;6255559;23;20039;-85
2022/06/22 06:39:16;;;;;;;;;;;;;;;;;;;;;
2022/06/22 06:45:21;;;;;;;4.38;2.25;;;21.60;83.50;;;;;;6136325;23;20088;-82
2022/06/22 06:47:53;;;;;;;3.25;2.00;;;;;;;;;;6132506;23;20021;-83
2022/06/22 06:51:11;;;;;;;5.88;2.10;;;21.60;83.40;;;;;;6135160;23;20005;-84
2022/06/22 06:53:55;;;;;;;5.00;1.85;;;;;;;;;;6072298;23;20002;-84
2022/06/22 06:56:59;;;;;;;6.10;2.10;;;21.40;84.30;;;;;;6079988;23;20029;-84
2022/06/22 06:59:35;;;;;;;6.13;2.10;;;;;;;;;;6021763;23;20002;-84
2022/06/22 07:02:10;;;;;;;6.40;1.95;;;;;;;;;;6088790;22;20085;-85
2022/06/22 07:04:36;;;;;;;4.70;2.28;;;;;;;;;;6253955;23;20050;-84
2022/06/22 07:07:30;;;;;;;3.97;2.15;;;;;;;;;;6252725;23;20001;-81
2022/06/22 07:10:38;;;;;;;5.05;1.80;;;21.60;82.70;;;;;;6251307;23;20000;-83
2022/06/22 07:13:12;;;;;;;3.95;2.00;;;21.50;83.00;;;;;;6234311;22;20011;-83
2022/06/22 07:15:40;;;;;;;3.78;2.17;;;;;;;;;;6249628;23;20008;-85
2022/06/22 07:18:31;;;;;;;3.72;1.90;;;21.40;82.90;;;;;;6254268;23;20030;-84
2022/06/22 07:21:16;;;;;;;5.32;2.10;;;;;;;;;;6254392;23;20011;-84
2022/06/22 07:23:46;;;;;;;4.53;2.13;;;;;;;;;;6254175;22;19996;-84
2022/06/22 07:26:32;;;;;;;3.25;2.13;;;;;;;;;;6258059;23;20326;-82
2022/06/22 07:29:13;;;;;;;4.00;1.70;;;21.60;82.70;;;;;;6254308;23;20000;-83
2022/06/22 07:32:15;;;;;;;5.45;1.83;;;21.50;83.30;;;;;;6254538;23;20004;-83
2022/06/22 07:35:03;;;;;;;2.65;1.92;;;21.40;83.70;;;;;;6255855;22;20401;-82
2022/06/22 07:38:02;;;;;;;10.48;2.10;;;;;;;;;;6253060;23;20011;-85
2022/06/22 07:40:29;;;;;;;4.10;2.35;;;21.40;84.20;;;;;;6190082;22;20030;-83
2022/06/22 07:42:57;;;;;;;9.15;2.40;;;21.40;84.60;;;;;;6228273;23;20399;-84
2022/06/22 07:45:31;;;;;;;4.75;2.10;;;;;;;;;;6253332;23;20030;-84
2022/06/22 07:48:06;;;;;;;7.05;2.63;;;;;;;;;;6252686;23;20008;-81
2022/06/22 07:50:44;;;;;;;5.95;1.90;;;21.40;83.60;;;;;;6252331;23;19996;-82
2022/06/22 07:53:37;;;;;;;5.00;2.10;;;21.50;83.50;;;;;;6250203;22;20020;-84
2022/06/22 07:56:09;;;;;;;5.70;2.17;;;21.50;83.40;;;;;;6251501;23;20000;-81
2022/06/22 07:58:47;;;;;;;10.75;2.45;;;21.50;83.50;;;;;;6250435;23;20000;-84
2022/06/22 08:01:18;;;;;;;5.85;2.10;;;21.50;83.20;;;;;;6251039;23;20077;-82
2022/06/22 08:03:49;;;;;;;12.23;2.50;;;21.50;83.70;;;;;;6251876;22;20004;-82
2022/06/22 08:07:12;;;;;;;3.53;2.17;;;21.60;83.60;;;;;;6251633;23;19996;-83
2022/06/22 08:10:03;;;;;;;5.13;2.30;;;21.60;84.10;;;;;;6105222;23;20033;-84
2022/06/22 08:13:00;;;;;;;3.75;2.00;;;21.50;84.40;;;;;;6246247;22;20004;-83
2022/06/22 08:15:31;;;;;;;10.77;2.22;;;;;;;;;;6236817;23;20041;-82
2022/06/22 08:18:05;;;;;;;2.78;1.95;;;21.80;84.20;;;;;;6252467;23;20477;-82
2022/06/22 08:20:41;;;;;;;4.13;2.78;;;21.80;84.50;;;;;;6253165;22;20031;-84
2022/06/22 08:23:12;;;;;;;6.93;3.90;;;21.90;84.80;;;;;;6252641;22;20006;-82
2022/06/22 08:25:41;;;;;;;8.45;3.90;;;;;;;;;;6253957;22;20362;-82
2022/06/22 08:28:07;;;;;;;12.70;3.10;;;21.90;85.20;;;;;;6258826;23;19996;-85
2022/06/22 08:30:36;;;;;;;6.60;2.72;;;;;;;;;;6255891;23;20012;-81
2022/06/22 08:33:11;;;;;;;6.63;2.95;;;21.80;85.50;;;;;;6224500;23;20009;-80
2022/06/22 08:35:50;;;;;;;5.10;2.40;;;21.70;86.30;;;;;;6249354;22;20004;-83
2022/06/22 08:38:20;;;;;;;6.00;2.35;;;;;;;;;;6249587;23;20000;-81
2022/06/22 08:40:56;;;;;;;4.47;2.50;;;21.70;86.00;;;;;;6248617;23;20004;-78
2022/06/22 08:43:25;;;;;;;5.93;2.13;;;;;;;;;;6251443;22;20055;-79
2022/06/22 08:46:30;;;;;;;4.03;2.40;;;21.70;86.50;;;;;;6248293;23;20342;-83
2022/06/22 08:49:24;;;;;;;4.25;2.60;;;21.60;86.40;;;;;;6251024;22;20480;-81
2022/06/22 08:52:04;;;;;;;5.22;2.60;;;;;;;;;;6218083;23;20008;-81
2022/06/22 08:54:39;;;;;;;7.40;2.47;;;;;;;;;;6251623;23;20334;-83
2022/06/22 08:57:38;;;;;;;4.93;2.15;;;21.60;86.60;;;;;;6248871;23;20010;-84
2022/06/22 09:00:04;;;;;;;6.38;2.60;;;;;;;;;;6249185;23;20004;-80
2022/06/22 09:02:49;;;;;;;3.58;2.33;;;21.60;87.00;;;;;;6247325;22;20004;-82
2022/06/22 09:05:40;;;;;;;7.10;2.50;;;21.60;87.10;;;;;;6249377;23;20006;-84
2022/06/22 09:08:25;;;;;;;6.13;2.28;;;21.70;87.30;;;;;;6247646;23;20000;-83
2022/06/22 09:11:00;;;;;;;6.10;2.45;;;21.60;87.50;;;;;;6246804;23;20015;-81
2022/06/22 09:13:26;;;;;;;3.58;2.40;;;;;;;;;;6249584;22;20008;-84
2022/06/22 09:16:35;;;;;;;8.73;2.30;;;21.50;88.20;;;;;;6247814;23;20095;-81
2022/06/22 09:19:01;;;;;;;4.57;2.20;;;;;;;;;;6250071;23;20035;-83
2022/06/22 09:21:27;;;;;;;4.63;2.50;;;;;;;;;;6252091;23;20079;-84
2022/06/22 09:23:59;;;;;;;5.65;2.35;;;;;;;;;;6252162;22;20000;-81
2022/06/22 09:26:57;;;;;;;4.97;2.58;;;21.60;89.20;;;;;;6253137;22;20014;-81
2022/06/22 09:29:33;;;;;;;3.67;2.20;;;21.60;89.60;;;;;;6253199;23;20000;-83
2022/06/22 09:32:15;;;;;;;8.13;2.83;;;21.60;90.00;;;;;;6253441;23;20012;-81
2022/06/22 09:35:07;;;;;;;3.97;2.30;;;21.70;89.30;;;;;;6252492;23;20004;-83
2022/06/22 09:37:34;;;;;;;4.30;2.45;;;;;;;;;;6253094;23;20427;-80
2022/06/22 09:40:18;;;;;;;4.35;2.47;;;21.70;89.60;;;;;;6252169;23;20008;-84
2022/06/22 09:43:13;;;;;;;8.98;2.33;;;21.90;89.50;;;;;;6252725;22;20000;-83
2022/06/22 09:45:40;;;;;;;3.95;2.60;;;;;;;;;;6253914;22;20079;-80
2022/06/22 09:48:21;;;;;;;7.05;3.05;;;22.00;89.50;;;;;;6281920;22;20008;-81
2022/06/22 09:50:50;;;;;;;5.70;2.50;;;;;;;;;;6258399;22;20038;-84
2022/06/22 09:53:31;;;;;;;9.10;2.78;;;;;;;;;;6258476;22;20004;-81
2022/06/22 09:56:25;;;;;;;5.70;2.70;;;;;;;;;;6257606;22;20426;-85
2022/06/22 09:58:57;;;;;;;6.00;2.95;;;;;;;;;;6285532;22;20555;-84
2022/06/22 10:02:00;;;;;;;5.22;2.88;;;22.20;89.90;;;;;;6256039;22;19999;-84
2022/06/22 10:04:27;;;;;;;4.15;2.50;;;;;;;;;;6257708;22;20484;-80
2022/06/22 10:07:05;;;;;;;9.07;2.67;;;;;;;;;;6255608;22;20008;-86
2022/06/22 10:09:58;;;;;;;6.10;2.60;;;21.90;90.70;;;;;;6280562;22;20434;-80
2022/06/22 10:12:40;;;;;;;9.10;2.83;;;;;;;;;;6255209;22;20003;-81
2022/06/22 10:15:43;;;;;;;4.50;2.53;;;21.90;90.90;;;;;;6256544;22;20000;-83
2022/06/22 10:18:30;;;;;;;7.82;2.90;;;21.90;91.10;;;;;;6256893;22;20514;-85
2022/06/22 10:21:09;;;;;;;6.60;3.13;;;;;;;;;;6280797;22;20079;-79
2022/06/22 10:23:38;;;;;;;6.32;2.88;;;;;;;;;;6251956;22;20007;-80
2022/06/22 10:26:42;;;;;;;8.10;3.00;;;22.30;90.80;;;;;;6253999;22;20038;-80
2022/06/22 10:29:17;;;;;;;5.03;2.60;;;;;;;;;;6196443;22;20026;-82
2022/06/22 10:32:01;;;;;;;6.60;2.90;;;22.30;90.80;;;;;;6281339;22;20458;-83
2022/06/22 10:34:39;;;;;;;5.80;2.90;;;22.40;90.80;;;;;;6255046;22;20008;-81
2022/06/22 10:37:05;;;;;;;5.57;2.80;;;;;;;;;;6278597;22;20418;-81
2022/06/22 10:39:40;;;;;;;4.00;2.70;;;22.70;90.60;;;;;;6281466;22;20003;-82
2022/06/22 10:45:15;;;;;;;5.43;2.72;;;;;;;;;;6283755;22;20057;-81
2022/06/22 10:48:22;;;;;;;4.60;2.75;;;23.40;90.20;;;;;;6249272;23;20016;-81
2022/06/22 10:50:51;;;;;;;6.53;2.90;;;23.40;90.20;;;;;;6250427;23;20024;-79
2022/06/22 10:53:54;;;;;;;4.30;2.90;;;23.50;90.10;;;;;;6249086;22;20072;-81
2022/06/22 10:56:45;;;;;;;6.82;2.97;;;23.60;90.30;;;;;;6248702;23;20011;-84
2022/06/22 10:59:21;;;;;;;5.97;3.30;;;23.70;90.10;;;;;;6246057;23;20000;-84
2022/06/22 11:02:24;;;;;;;5.45;3.08;;;23.90;90.30;;;;;;6247492;23;20015;-79
2022/06/22 11:04:58;;;;;;;10.13;3.70;;;23.90;90.20;;;;;;6247197;23;20050;-80
2022/06/22 11:07:30;;;;;;;14.05;4.00;;;23.80;90.50;;;;;;6245145;23;20031;-82
2022/06/22 11:10:10;;;;;;;7.43;3.70;;;23.90;90.60;;;;;;6245728;22;20000;-82
2022/06/22 11:12:39;;;;;;;5.65;3.05;;;23.90;90.60;;;;;;6246285;22;20004;-83
2022/06/22 11:15:28;;;;;;;7.22;3.75;;;24.30;90.20;;;;;;6239417;23;20033;-82
2022/06/22 11:18:12;;;;;;;5.38;3.78;;;24.40;90.20;;;;;;6246867;22;20015;-80
2022/06/22 11:21:12;;;;;;;7.10;3.78;;;24.60;90.30;;;;;;6245365;23;20012;-80
2022/06/22 11:23:50;;;;;;;8.02;3.97;;;24.60;90.10;;;;;;6245744;22;20407;-83
2022/06/22 11:33:02;;;;;;;8.25;3.95;;;25.10;90.10;;;;;;6127218;23;20053;-80
2022/06/22 11:36:01;;;;;;;8.27;4.00;;;25.20;90.10;;;;;;6239783;22;20316;-81
2022/06/22 11:38:49;;;;;;;11.05;4.60;;;25.30;90.10;;;;;;6249443;23;20463;-80
2022/06/22 11:41:40;;;;;;;6.88;4.60;;;25.50;90.10;;;;;;6249701;23;20122;-80
2022/06/22 11:44:16;;;;;;;7.82;4.97;;;25.40;90.20;;;;;;6249310;22;20058;-79
2022/06/22 11:47:05;;;;;;;7.47;4.75;;;25.70;90.20;;;;;;6249210;23;20016;-81
2022/06/22 11:50:00;;;;;;;8.32;4.70;;;25.80;90.10;;;;;;6247953;23;20066;-80
2022/06/22 11:53:07;;;;;;;6.72;4.43;;;25.60;90.30;;;;;;6228259;22;20012;-81
2022/06/22 11:55:40;;;;;;;8.23;4.38;;;25.70;90.20;;;;;;6247410;22;20046;-83
2022/06/22 11:58:15;;;;;;;6.65;4.60;;;;;;;;;;6247037;23;20000;-80
2022/06/22 12:01:04;;;;;;;6.25;4.80;;;25.80;90.30;;;;;;6244649;23;20008;-81
2022/06/22 12:03:36;;;;;;;6.50;4.95;;;25.70;90.50;;;;;;6184708;22;20008;-80
2022/06/22 12:06:13;;;;;;;8.45;5.22;;;25.70;90.60;;;;;;6245599;23;20035;-79
2022/06/22 12:09:11;;;;;;;6.65;4.93;;;25.80;90.50;;;;;;6247331;23;20096;-82
2022/06/22 12:11:37;;;;;;;7.68;5.07;;;;;;;;;;6247148;23;20004;-79
2022/06/22 12:17:38;;;;;;;9.10;4.93;;;26.40;90.40;;;;;;6249076;23;20050;-82
2022/06/22 12:20:16;;;;;;;6.85;4.70;;;26.50;90.10;;;;;;6247273;23;20034;-82
2022/06/22 12:23:13;;;;;;;7.13;4.70;;;26.40;90.20;;;;;;6246498;22;20000;-82
2022/06/22 12:25:51;;;;;;;9.65;5.40;;;26.30;90.50;;;;;;6246907;23;20042;-82
2022/06/22 12:28:20;;;;;;;9.30;4.93;;;26.40;90.50;;;;;;6247021;23;20000;-82
2022/06/22 12:31:12;;;;;;;7.25;4.90;;;26.30;90.30;;;;;;6247654;23;20015;-82
2022/06/22 12:33:43;;;;;;;10.70;5.10;;;26.40;90.30;;;;;;6250049;22;20006;-80
2022/06/22 12:36:37;;;;;;;7.53;4.70;;;26.50;90.30;;;;;;6247841;23;20004;-82
2022/06/22 12:39:13;;;;;;;7.88;5.22;;;26.60;90.20;;;;;;6248135;23;20001;-81
2022/06/22 12:41:54;;;;;;;6.82;4.40;;;26.60;90.40;;;;;;6247973;23;20099;-82
2022/06/22 12:44:49;;;;;;;7.25;5.18;;;26.80;90.30;;;;;;6247546;22;20427;-79
2022/06/22 12:48:06;;;;;;;9.43;4.97;;;27.00;89.80;;;;;;6247283;23;20008;-82
2022/06/22 12:50:54;;;;;;;10.00;5.40;;;26.90;90.00;;;;;;6180824;22;20012;-82
2022/06/22 12:53:20;;;;;;;12.77;5.50;;;;;;;;;;6240533;22;20074;-79
2022/06/22 12:55:52;;;;;;;9.50;5.72;;;27.10;90.10;;;;;;6239963;23;20004;-83
2022/06/22 12:58:26;;;;;;;9.30;5.00;;;27.10;90.20;;;;;;6245019;23;20012;-80
2022/06/22 13:00:57;;;;;;;8.32;5.40;;;27.00;90.20;;;;;;6247435;23;20034;-81
2022/06/22 13:03:26;;;;;;;7.93;4.95;;;27.10;90.20;;;;;;6245991;22;20008;-80
2022/06/22 13:05:53;;;;;;;9.32;4.72;;;27.10;90.40;;;;;;6247526;23;20000;-78
2022/06/22 13:08:23;;;;;;;7.68;4.85;;;27.30;90.40;;;;;;6246548;23;20004;-81
2022/06/22 13:10:55;;;;;;;10.25;5.22;;;27.30;90.20;;;;;;6247088;23;20161;-83
2022/06/22 13:13:46;;;;;;;11.55;5.38;;;27.30;90.00;;;;;;6250840;22;20008;-81
2022/06/22 13:16:27;;;;;;;10.65;5.65;;;27.20;90.30;;;;;;6251966;23;20004;-80
2022/06/22 13:19:07;;;;;;;9.68;5.35;;;27.40;90.20;;;;;;6251900;22;20011;-79
2022/06/22 13:21:54;;;;;;;7.88;4.85;;;27.50;89.90;;;;;;6246389;23;20008;-81
2022/06/22 13:24:35;;;;;;;9.25;5.22;;;27.60;89.30;;;;;;6248060;22;20008;-84
2022/06/22 13:27:11;;;;;;;6.88;5.38;;;27.70;89.30;;;;;;6259553;23;20004;-80
2022/06/22 13:29:43;;;;;;;7.68;4.72;;;27.60;89.60;;;;;;6246696;23;20028;-80
2022/06/22 13:32:12;;;;;;;9.35;5.07;;;27.60;90.10;;;;;;6247291;22;20011;-82
2022/06/22 13:34:49;;;;;;;9.18;5.38;;;27.60;90.00;;;;;;6243437;23;20004;-81
2022/06/22 13:37:56;;;;;;;8.27;4.85;;;27.40;90.40;;;;;;6242777;23;20438;-80
2022/06/22 13:41:00;;;;;;;11.98;5.65;;;27.20;96.10;;;;;;6223479;23;20008;-79
2022/06/22 13:43:32;;;;;;;8.27;5.18;;;27.20;90.70;;;;;;6243002;22;20454;-78
2022/06/22 13:46:01;;;;;;;9.05;4.68;;;27.00;90.80;;;;;;6243230;22;20030;-81
2022/06/22 13:48:37;;;;;;;7.90;5.15;;;26.90;91.20;;;;;;6277639;22;20055;-81
2022/06/22 13:51:46;;;;;;;9.00;5.30;;;26.80;91.20;;;;;;6275589;22;20015;-82
2022/06/22 13:54:13;;;;;;;;;;;26.80;91.30;;;;;;6276380;22;20004;-81
2022/06/22 13:57:01;;;;;;;7.95;5.22;;;26.70;91.70;;;;;;6246990;22;19903;-82
2022/06/22 13:59:33;;;;;;;9.95;5.80;;;26.60;92.00;;;;;;6277180;22;20448;-82
2022/06/22 14:02:06;;;;;;;11.25;5.05;;;26.40;92.20;;;;;;6246512;22;20011;-80
2022/06/22 14:04:38;;;;;;;10.63;5.32;;;26.40;92.40;;;;;;6278129;22;20010;-80
2022/06/22 14:07:15;;;;;;;9.98;5.47;;;26.40;92.40;;;;;;6251688;22;20501;-79
2022/06/22 14:09:47;;;;;;;10.07;6.00;;;26.20;93.00;;;;;;6247080;22;20014;-84
2022/06/22 14:12:21;;;;;;;11.77;6.10;;;26.20;93.00;;;;;;6248539;22;20003;-80
2022/06/22 14:15:02;;;;;;;9.40;5.78;;;26.20;93.00;;;;;;6253659;22;20438;-83
2022/06/22 14:17:49;;;;;;;13.43;5.93;;;26.10;93.60;;;;;;6278073;22;20004;-83
2022/06/22 14:20:24;;;;;;;9.07;5.93;;;26.00;93.80;;;;;;6253538;22;20008;-81
2022/06/22 14:22:57;;;;;;;12.13;5.97;;;25.60;94.40;;;;;;6248915;22;20011;-84
2022/06/22 14:25:48;;;;;;;10.80;6.13;;;25.50;94.70;;;;;;6281337;22;20004;-80
2022/06/22 14:28:37;;;;;;;8.55;6.00;;;25.40;95.40;;;;;;6280173;22;20064;-79
2022/06/22 14:31:06;;;;;;;14.68;7.15;;;;;;;;;;6277458;22;20006;-82
2022/06/22 14:33:44;;;;;;;10.95;6.50;;;25.00;97.30;;;;;;6280996;22;20004;-82
2022/06/22 14:36:42;;;;;;;12.55;7.13;;;24.90;97.90;;;;;;6254844;22;20007;-81
2022/06/22 14:39:14;;;;;;;11.02;7.15;;;;;;;;;;6246069;22;20008;-80
2022/06/22 14:41:51;;;;;;;13.30;7.05;;;24.70;99.90;;;;;;6281164;22;20004;-80
2022/06/22 14:44:20;;;;;;;12.82;6.97;;;24.70;99.80;;;;;;6252356;22;20063;-80
2022/06/22 14:47:10;;;;;;;12.40;7.20;;;24.80;99.90;;;;;;6247507;23;20016;-85
2022/06/22 14:49:40;;;;;;;9.25;7.07;;;24.90;99.90;;;;;;6248833;23;20004;-81
2022/06/22 14:52:18;;;;;;;9.00;7.00;;;21.00;99.90;;;;;;6246827;22;20004;-85
2022/06/22 14:55:09;;;;;;;14.00;8.50;;;24.80;99.90;;;;;;6249817;23;20000;-81